sensor_id;sensor_type;location;lat;lon;timestamp;pressure;altitude;pressure_sealevel;temperature;humidity
4836;BME280;2432;51.226;6.904;2022-07-29T00:02:23;100823.22;;;19.83;62.61
4836;BME280;2432;51.226;6.904;2022-07-29T00:04:50;100819.94;;;19.77;60.80
4836;BME280;2432;51.226;6.904;2022-07-29T00:07:17;100822.50;;;19.79;62.83
4836;BME280;2432;51.226;6.904;2022-07-29T00:09:43;100816.34;;;19.79;62.90
4836;BME280;2432;51.226;6.904;2022-07-29T00:12:19;100817.47;;;19.74;61.18
4836;BME280;2432;51.226;6.904;2022-07-29T00:14:53;100820.13;;;19.74;62.23
4836;BME280;2432;51.226;6.904;2022-07-29T00:17:20;100810.50;;;19.72;62.24
4836;BME280;2432;51.226;6.904;2022-07-29T00:19:47;100803.47;;;19.71;62.65
4836;BME280;2432;51.226;6.904;2022-07-29T00:22:13;100804.41;;;19.70;62.47
4836;BME280;2432;51.226;6.904;2022-07-29T00:24:40;100803.47;;;19.71;61.33
4836;BME280;2432;51.226;6.904;2022-07-29T00:27:06;100795.69;;;19.68;62.79
4836;BME280;2432;51.226;6.904;2022-07-29T00:29:33;100792.34;;;19.64;62.43
4836;BME280;2432;51.226;6.904;2022-07-29T00:32:01;100796.00;;;19.62;61.23
4836;BME280;2432;51.226;6.904;2022-07-29T00:34:28;100779.31;;;19.60;61.52
4836;BME280;2432;51.226;6.904;2022-07-29T00:37:13;100774.84;;;19.60;62.35
4836;BME280;2432;51.226;6.904;2022-07-29T00:39:39;100772.44;;;19.56;61.36
4836;BME280;2432;51.226;6.904;2022-07-29T00:42:06;100771.44;;;19.58;62.56
4836;BME280;2432;51.226;6.904;2022-07-29T00:44:41;100765.41;;;19.55;60.71
4836;BME280;2432;51.226;6.904;2022-07-29T00:47:09;100755.69;;;19.54;61.93
4836;BME280;2432;51.226;6.904;2022-07-29T00:49:38;100754.94;;;19.52;61.67
4836;BME280;2432;51.226;6.904;2022-07-29T00:52:06;100747.03;;;19.50;62.66
4836;BME280;2432;51.226;6.904;2022-07-29T00:54:34;100745.25;;;19.51;64.16
4836;BME280;2432;51.226;6.904;2022-07-29T00:57:05;100739.94;;;19.51;63.12
4836;BME280;2432;51.226;6.904;2022-07-29T00:59:32;100745.34;;;19.49;62.07
4836;BME280;2432;51.226;6.904;2022-07-29T01:02:04;100741.81;;;19.48;63.77
4836;BME280;2432;51.226;6.904;2022-07-29T01:04:31;100735.66;;;19.48;64.22
4836;BME280;2432;51.226;6.904;2022-07-29T01:06:58;100737.47;;;19.47;62.69
4836;BME280;2432;51.226;6.904;2022-07-29T01:09:27;100740.13;;;19.47;63.03
4836;BME280;2432;51.226;6.904;2022-07-29T01:12:13;100741.13;;;19.45;62.91
4836;BME280;2432;51.226;6.904;2022-07-29T01:14:41;100728.69;;;19.45;62.85
4836;BME280;2432;51.226;6.904;2022-07-29T01:17:26;100738.72;;;19.40;61.64
4836;BME280;2432;51.226;6.904;2022-07-29T01:20:00;100732.47;;;19.41;63.63
4836;BME280;2432;51.226;6.904;2022-07-29T01:22:31;100731.63;;;19.41;63.57
4836;BME280;2432;51.226;6.904;2022-07-29T01:30:23;100729.06;;;19.39;63.93
4836;BME280;2432;51.226;6.904;2022-07-29T01:32:54;100726.41;;;19.39;65.17
4836;BME280;2432;51.226;6.904;2022-07-29T01:35:25;100722.19;;;19.35;63.42
4836;BME280;2432;51.226;6.904;2022-07-29T01:37:58;100722.19;;;19.35;62.93
4836;BME280;2432;51.226;6.904;2022-07-29T01:43:11;100726.81;;;19.32;62.16
4836;BME280;2432;51.226;6.904;2022-07-29T01:45:54;100719.03;;;19.29;63.72
4836;BME280;2432;51.226;6.904;2022-07-29T01:49:13;100719.03;;;19.29;64.23
4836;BME280;2432;51.226;6.904;2022-07-29T01:51:18;100719.34;;;19.23;62.48
4836;BME280;2432;51.226;6.904;2022-07-29T01:53:54;100721.25;;;19.20;62.79
4836;BME280;2432;51.226;6.904;2022-07-29T01:56:24;100719.50;;;19.19;63.85
4836;BME280;2432;51.226;6.904;2022-07-29T01:58:52;100720.09;;;19.09;63.08
4836;BME280;2432;51.226;6.904;2022-07-29T02:01:21;100718.38;;;19.08;63.83
4836;BME280;2432;51.226;6.904;2022-07-29T02:03:51;100722.28;;;19.01;62.48
4836;BME280;2432;51.226;6.904;2022-07-29T02:06:21;100722.56;;;18.96;63.69
4836;BME280;2432;51.226;6.904;2022-07-29T02:08:51;100722.69;;;18.93;63.71
4836;BME280;2432;51.226;6.904;2022-07-29T02:11:19;100719.69;;;18.83;63.13
4836;BME280;2432;51.226;6.904;2022-07-29T02:13:46;100715.22;;;18.84;63.67
4836;BME280;2432;51.226;6.904;2022-07-29T02:16:14;100721.56;;;18.81;63.35
4836;BME280;2432;51.226;6.904;2022-07-29T02:18:43;100724.91;;;18.85;63.93
4836;BME280;2432;51.226;6.904;2022-07-29T02:21:12;100719.19;;;18.92;65.10
4836;BME280;2432;51.226;6.904;2022-07-29T02:23:41;100729.31;;;19.02;65.54
4836;BME280;2432;51.226;6.904;2022-07-29T02:26:17;100740.56;;;19.07;65.64
4836;BME280;2432;51.226;6.904;2022-07-29T02:28:44;100734.31;;;19.08;67.89
4836;BME280;2432;51.226;6.904;2022-07-29T02:31:13;100732.41;;;19.10;66.02
4836;BME280;2432;51.226;6.904;2022-07-29T02:33:41;100733.34;;;19.09;65.33
4836;BME280;2432;51.226;6.904;2022-07-29T02:36:09;100736.19;;;19.06;64.40
4836;BME280;2432;51.226;6.904;2022-07-29T02:38:37;100733.53;;;19.06;64.94
4836;BME280;2432;51.226;6.904;2022-07-29T02:41:23;100735.97;;;18.93;63.39
4836;BME280;2432;51.226;6.904;2022-07-29T02:43:54;100741.44;;;18.90;64.29
4836;BME280;2432;51.226;6.904;2022-07-29T02:46:28;100742.47;;;18.87;65.25
4836;BME280;2432;51.226;6.904;2022-07-29T02:49:06;100752.94;;;18.73;64.03
4836;BME280;2432;51.226;6.904;2022-07-29T02:51:45;100755.91;;;18.67;63.69
4836;BME280;2432;51.226;6.904;2022-07-29T02:54:20;100742.78;;;18.64;63.95
4836;BME280;2432;51.226;6.904;2022-07-29T02:56:47;100742.88;;;18.62;63.71
4836;BME280;2432;51.226;6.904;2022-07-29T02:59:18;100742.72;;;18.66;64.90
4836;BME280;2432;51.226;6.904;2022-07-29T03:01:47;100745.25;;;18.69;65.34
4836;BME280;2432;51.226;6.904;2022-07-29T03:04:16;100753.34;;;18.66;64.62
4836;BME280;2432;51.226;6.904;2022-07-29T03:06:46;100761.44;;;18.62;64.23
4836;BME280;2432;51.226;6.904;2022-07-29T03:09:13;100766.66;;;18.64;64.96
4836;BME280;2432;51.226;6.904;2022-07-29T03:11:41;100764.25;;;18.59;63.92
4836;BME280;2432;51.226;6.904;2022-07-29T03:14:17;100760.03;;;18.55;64.05
4836;BME280;2432;51.226;6.904;2022-07-29T03:16:44;100763.44;;;18.57;64.55
4836;BME280;2432;51.226;6.904;2022-07-29T03:19:11;100772.44;;;18.55;63.87
4836;BME280;2432;51.226;6.904;2022-07-29T03:21:38;100788.44;;;18.53;63.50
4836;BME280;2432;51.226;6.904;2022-07-29T03:24:05;100796.75;;;18.46;63.50
4836;BME280;2432;51.226;6.904;2022-07-29T03:26:36;100794.19;;;18.44;63.43
4836;BME280;2432;51.226;6.904;2022-07-29T03:29:03;100793.63;;;18.38;63.41
4836;BME280;2432;51.226;6.904;2022-07-29T03:31:29;100798.16;;;18.35;63.09
4836;BME280;2432;51.226;6.904;2022-07-29T03:33:56;100810.47;;;18.36;63.33
4836;BME280;2432;51.226;6.904;2022-07-29T03:36:23;100813.34;;;18.32;63.01
4836;BME280;2432;51.226;6.904;2022-07-29T03:38:51;100809.06;;;18.29;63.89
4836;BME280;2432;51.226;6.904;2022-07-29T03:41:18;100816.53;;;18.21;65.95
4836;BME280;2432;51.226;6.904;2022-07-29T03:43:49;100812.78;;;18.08;66.96
4836;BME280;2432;51.226;6.904;2022-07-29T03:46:17;100803.97;;;17.89;67.61
4836;BME280;2432;51.226;6.904;2022-07-29T03:48:48;100806.69;;;17.87;70.66
4836;BME280;2432;51.226;6.904;2022-07-29T03:51:16;100800.41;;;17.71;69.04
4836;BME280;2432;51.226;6.904;2022-07-29T03:53:58;100806.94;;;17.62;71.87
4836;BME280;2432;51.226;6.904;2022-07-29T03:56:25;100803.66;;;17.57;71.34
4836;BME280;2432;51.226;6.904;2022-07-29T03:58:54;100798.66;;;17.51;70.67
4836;BME280;2432;51.226;6.904;2022-07-29T04:01:22;100792.41;;;17.52;71.60
4836;BME280;2432;51.226;6.904;2022-07-29T04:03:48;100790.94;;;17.46;71.97
4836;BME280;2432;51.226;6.904;2022-07-29T04:06:15;100784.28;;;17.57;72.28
4836;BME280;2432;51.226;6.904;2022-07-29T04:08:42;100792.91;;;17.60;71.68
4836;BME280;2432;51.226;6.904;2022-07-29T04:11:08;100772.81;;;17.56;71.88
4836;BME280;2432;51.226;6.904;2022-07-29T04:13:35;100775.75;;;17.50;72.05
4836;BME280;2432;51.226;6.904;2022-07-29T04:16:02;100779.34;;;17.49;72.17
4836;BME280;2432;51.226;6.904;2022-07-29T04:18:28;100772.88;;;17.55;72.96
4836;BME280;2432;51.226;6.904;2022-07-29T04:20:55;100774.03;;;17.49;72.58
4836;BME280;2432;51.226;6.904;2022-07-29T04:23:21;100783.03;;;17.45;71.69
4836;BME280;2432;51.226;6.904;2022-07-29T04:25:48;100774.22;;;17.44;72.86
4836;BME280;2432;51.226;6.904;2022-07-29T04:28:14;100778.03;;;17.39;72.12
4836;BME280;2432;51.226;6.904;2022-07-29T04:30:42;100780.69;;;17.39;72.58
4836;BME280;2432;51.226;6.904;2022-07-29T04:33:08;100773.19;;;17.48;73.30
4836;BME280;2432;51.226;6.904;2022-07-29T04:35:38;100769.59;;;17.49;72.59
4836;BME280;2432;51.226;6.904;2022-07-29T04:38:17;100776.53;;;17.52;73.76
4836;BME280;2432;51.226;6.904;2022-07-29T04:40:44;100785.22;;;17.56;73.70
4836;BME280;2432;51.226;6.904;2022-07-29T04:43:12;100792.06;;;17.60;73.32
4836;BME280;2432;51.226;6.904;2022-07-29T04:45:41;100805.38;;;17.58;72.76
4836;BME280;2432;51.226;6.904;2022-07-29T04:48:07;100796.66;;;17.56;73.41
4836;BME280;2432;51.226;6.904;2022-07-29T04:50:34;100803.09;;;17.50;76.52
4836;BME280;2432;51.226;6.904;2022-07-29T04:53:00;100791.78;;;17.47;79.16
4836;BME280;2432;51.226;6.904;2022-07-29T04:55:27;100780.97;;;17.33;78.94
4836;BME280;2432;51.226;6.904;2022-07-29T04:57:53;100778.88;;;17.20;80.93
4836;BME280;2432;51.226;6.904;2022-07-29T05:00:20;100774.63;;;17.16;82.23
4836;BME280;2432;51.226;6.904;2022-07-29T05:02:53;100780.72;;;17.18;84.02
4836;BME280;2432;51.226;6.904;2022-07-29T05:05:20;100776.94;;;17.24;85.77
4836;BME280;2432;51.226;6.904;2022-07-29T05:07:46;100781.78;;;17.14;81.52
4836;BME280;2432;51.226;6.904;2022-07-29T05:10:13;100785.81;;;17.23;85.84
4836;BME280;2432;51.226;6.904;2022-07-29T05:12:39;100798.19;;;17.22;83.32
4836;BME280;2432;51.226;6.904;2022-07-29T05:15:06;100800.84;;;17.22;83.56
4836;BME280;2432;51.226;6.904;2022-07-29T05:17:33;100797.13;;;17.27;85.51
4836;BME280;2432;51.226;6.904;2022-07-29T05:20:04;100795.41;;;17.26;84.57
4836;BME280;2432;51.226;6.904;2022-07-29T05:22:30;100788.19;;;17.29;84.50
4836;BME280;2432;51.226;6.904;2022-07-29T05:24:57;100790.47;;;17.37;87.02
4836;BME280;2432;51.226;6.904;2022-07-29T05:27:23;100793.13;;;17.37;85.43
4836;BME280;2432;51.226;6.904;2022-07-29T05:29:50;100796.41;;;17.42;86.99
4836;BME280;2432;51.226;6.904;2022-07-29T05:32:17;100797.09;;;17.47;87.86
4836;BME280;2432;51.226;6.904;2022-07-29T05:34:43;100789.00;;;17.50;87.28
4836;BME280;2432;51.226;6.904;2022-07-29T05:37:18;100798.50;;;17.54;85.89
4836;BME280;2432;51.226;6.904;2022-07-29T05:39:45;100795.81;;;17.56;84.07
4836;BME280;2432;51.226;6.904;2022-07-29T05:42:16;100794.88;;;17.57;83.08
4836;BME280;2432;51.226;6.904;2022-07-29T05:44:42;100797.38;;;17.60;83.81
4836;BME280;2432;51.226;6.904;2022-07-29T05:47:09;100795.28;;;17.66;85.63
4836;BME280;2432;51.226;6.904;2022-07-29T05:49:35;100789.22;;;17.64;83.34
4836;BME280;2432;51.226;6.904;2022-07-29T05:52:02;100791.78;;;17.66;84.85
4836;BME280;2432;51.226;6.904;2022-07-29T05:54:29;100782.91;;;17.67;83.98
4836;BME280;2432;51.226;6.904;2022-07-29T05:56:55;100792.41;;;17.72;83.50
4836;BME280;2432;51.226;6.904;2022-07-29T05:59:22;100799.41;;;17.73;80.88
4836;BME280;2432;51.226;6.904;2022-07-29T06:01:55;100801.97;;;17.75;81.30
4836;BME280;2432;51.226;6.904;2022-07-29T06:04:23;100807.28;;;17.75;80.16
4836;BME280;2432;51.226;6.904;2022-07-29T06:06:50;100807.84;;;17.82;82.21
4836;BME280;2432;51.226;6.904;2022-07-29T06:09:16;100813.94;;;17.84;80.46
4836;BME280;2432;51.226;6.904;2022-07-29T06:11:43;100814.56;;;17.89;84.10
4836;BME280;2432;51.226;6.904;2022-07-29T06:14:09;100822.31;;;17.93;84.66
4836;BME280;2432;51.226;6.904;2022-07-29T06:16:36;100831.88;;;17.96;82.46
4836;BME280;2432;51.226;6.904;2022-07-29T06:19:03;100822.88;;;18.00;83.02
4836;BME280;2432;51.226;6.904;2022-07-29T06:21:30;100828.88;;;18.03;82.46
4836;BME280;2432;51.226;6.904;2022-07-29T06:23:57;100830.31;;;18.11;83.97
4836;BME280;2432;51.226;6.904;2022-07-29T06:26:23;100831.00;;;18.14;84.21
4836;BME280;2432;51.226;6.904;2022-07-29T06:28:57;100831.66;;;18.19;84.71
4836;BME280;2432;51.226;6.904;2022-07-29T06:31:23;100840.38;;;18.21;84.62
4836;BME280;2432;51.226;6.904;2022-07-29T06:33:50;100839.44;;;18.22;85.18
4836;BME280;2432;51.226;6.904;2022-07-29T06:36:20;100839.53;;;18.21;83.45
4836;BME280;2432;51.226;6.904;2022-07-29T06:38:50;100845.56;;;18.24;83.88
4836;BME280;2432;51.226;6.904;2022-07-29T06:41:17;100850.72;;;18.27;85.33
4836;BME280;2432;51.226;6.904;2022-07-29T06:43:45;100852.25;;;18.31;85.37
4836;BME280;2432;51.226;6.904;2022-07-29T06:46:20;100850.53;;;18.30;83.81
4836;BME280;2432;51.226;6.904;2022-07-29T06:48:47;100852.34;;;18.30;83.37
4836;BME280;2432;51.226;6.904;2022-07-29T06:51:15;100849.94;;;18.25;82.47
4836;BME280;2432;51.226;6.904;2022-07-29T06:53:48;100846.34;;;18.26;84.74
4836;BME280;2432;51.226;6.904;2022-07-29T06:56:36;100847.91;;;18.30;84.30
4836;BME280;2432;51.226;6.904;2022-07-29T06:59:09;100853.84;;;18.35;86.52
4836;BME280;2432;51.226;6.904;2022-07-29T07:01:38;100860.78;;;18.38;85.94
4836;BME280;2432;51.226;6.904;2022-07-29T07:04:06;100859.06;;;18.37;87.73
4836;BME280;2432;51.226;6.904;2022-07-29T07:06:33;100868.41;;;18.27;92.85
4836;BME280;2432;51.226;6.904;2022-07-29T07:08:59;100863.84;;;18.12;91.23
4836;BME280;2432;51.226;6.904;2022-07-29T07:11:26;100864.00;;;18.08;91.67
4836;BME280;2432;51.226;6.904;2022-07-29T07:13:53;100859.53;;;18.09;90.33
4836;BME280;2432;51.226;6.904;2022-07-29T07:16:26;100866.56;;;18.10;90.53
4836;BME280;2432;51.226;6.904;2022-07-29T07:18:52;100867.34;;;18.12;91.28
4836;BME280;2432;51.226;6.904;2022-07-29T07:21:19;100863.13;;;18.08;90.51
4836;BME280;2432;51.226;6.904;2022-07-29T07:23:46;100862.19;;;18.09;91.15
4836;BME280;2432;51.226;6.904;2022-07-29T07:26:13;100870.66;;;18.17;94.11
4836;BME280;2432;51.226;6.904;2022-07-29T07:28:39;100880.16;;;18.21;92.32
4836;BME280;2432;51.226;6.904;2022-07-29T07:31:05;100881.25;;;18.17;92.99
4836;BME280;2432;51.226;6.904;2022-07-29T07:33:32;100885.91;;;18.12;92.30
4836;BME280;2432;51.226;6.904;2022-07-29T07:35:58;100894.06;;;18.07;91.33
4836;BME280;2432;51.226;6.904;2022-07-29T07:38:25;100881.09;;;18.01;91.19
4836;BME280;2432;51.226;6.904;2022-07-29T07:40:51;100875.72;;;18.03;94.32
4836;BME280;2432;51.226;6.904;2022-07-29T07:43:18;100883.03;;;17.98;94.36
4836;BME280;2432;51.226;6.904;2022-07-29T07:45:45;100868.91;;;17.97;95.64
4836;BME280;2432;51.226;6.904;2022-07-29T07:48:11;100867.19;;;17.96;97.57
4836;BME280;2432;51.226;6.904;2022-07-29T07:50:38;100865.41;;;17.97;99.93
4836;BME280;2432;51.226;6.904;2022-07-29T07:53:04;100862.91;;;17.94;99.23
4836;BME280;2432;51.226;6.904;2022-07-29T07:55:31;100859.13;;;17.99;100.00
4836;BME280;2432;51.226;6.904;2022-07-29T07:58:18;100865.28;;;18.00;100.00
4836;BME280;2432;51.226;6.904;2022-07-29T08:00:44;100862.91;;;17.94;100.00
4836;BME280;2432;51.226;6.904;2022-07-29T08:03:11;100865.41;;;17.97;100.00
4836;BME280;2432;51.226;6.904;2022-07-29T08:05:43;100869.00;;;17.96;100.00
4836;BME280;2432;51.226;6.904;2022-07-29T08:08:10;100874.44;;;17.93;100.00
4836;BME280;2432;51.226;6.904;2022-07-29T08:10:36;100883.25;;;17.93;100.00
4836;BME280;2432;51.226;6.904;2022-07-29T08:13:19;100872.81;;;17.90;100.00
4836;BME280;2432;51.226;6.904;2022-07-29T08:15:47;100871.00;;;17.91;100.00
4836;BME280;2432;51.226;6.904;2022-07-29T08:18:13;100873.72;;;17.89;100.00
4836;BME280;2432;51.226;6.904;2022-07-29T08:20:40;100864.00;;;17.90;100.00
4836;BME280;2432;51.226;6.904;2022-07-29T08:23:07;100867.69;;;17.86;100.00
4836;BME280;2432;51.226;6.904;2022-07-29T08:25:37;100873.28;;;17.79;100.00
4836;BME280;2432;51.226;6.904;2022-07-29T08:28:07;100865.47;;;17.76;100.00
4836;BME280;2432;51.226;6.904;2022-07-29T08:30:34;100865.56;;;17.75;100.00
4836;BME280;2432;51.226;6.904;2022-07-29T08:33:01;100857.38;;;17.79;100.00
4836;BME280;2432;51.226;6.904;2022-07-29T08:35:28;100855.75;;;17.77;100.00
4836;BME280;2432;51.226;6.904;2022-07-29T08:38:00;100853.94;;;17.77;100.00
4836;BME280;2432;51.226;6.904;2022-07-29T08:40:27;100855.66;;;17.78;100.00
4836;BME280;2432;51.226;6.904;2022-07-29T08:42:58;100854.72;;;17.79;100.00
4836;BME280;2432;51.226;6.904;2022-07-29T08:45:26;100853.75;;;17.82;100.00
4836;BME280;2432;51.226;6.904;2022-07-29T08:47:55;100851.81;;;17.86;100.00
4836;BME280;2432;51.226;6.904;2022-07-29T08:50:21;100851.81;;;17.86;100.00
4836;BME280;2432;51.226;6.904;2022-07-29T08:52:48;100854.69;;;17.81;100.00
4836;BME280;2432;51.226;6.904;2022-07-29T08:55:16;100851.81;;;17.86;100.00
4836;BME280;2432;51.226;6.904;2022-07-29T08:57:46;100850.38;;;17.78;100.00
4836;BME280;2432;51.226;6.904;2022-07-29T09:00:21;100849.66;;;17.75;100.00
4836;BME280;2432;51.226;6.904;2022-07-29T09:02:51;100848.81;;;17.74;100.00
4836;BME280;2432;51.226;6.904;2022-07-29T09:05:23;100844.94;;;17.82;100.00
4836;BME280;2432;51.226;6.904;2022-07-29T09:07:50;100840.34;;;17.85;100.00
4836;BME280;2432;51.226;6.904;2022-07-29T09:10:17;100843.69;;;17.89;100.00
4836;BME280;2432;51.226;6.904;2022-07-29T09:12:44;100839.84;;;17.96;100.00
4836;BME280;2432;51.226;6.904;2022-07-29T09:15:10;100844.09;;;18.00;100.00
4836;BME280;2432;51.226;6.904;2022-07-29T09:17:48;100838.91;;;17.97;100.00
4836;BME280;2432;51.226;6.904;2022-07-29T09:20:17;100837.06;;;17.99;100.00
4836;BME280;2432;51.226;6.904;2022-07-29T09:22:45;100843.94;;;18.03;100.00
4836;BME280;2432;51.226;6.904;2022-07-29T09:25:32;100848.16;;;18.07;100.00
4836;BME280;2432;51.226;6.904;2022-07-29T09:28:07;100857.84;;;18.08;100.00
4836;BME280;2432;51.226;6.904;2022-07-29T09:30:34;100856.75;;;18.12;100.00
4836;BME280;2432;51.226;6.904;2022-07-29T09:33:03;100853.88;;;18.17;100.00
4836;BME280;2432;51.226;6.904;2022-07-29T09:35:30;100859.97;;;18.19;100.00
4836;BME280;2432;51.226;6.904;2022-07-29T09:37:57;100866.91;;;18.21;100.00
4836;BME280;2432;51.226;6.904;2022-07-29T09:40:26;100858.94;;;18.21;100.00
4836;BME280;2432;51.226;6.904;2022-07-29T09:42:54;100860.97;;;18.16;100.00
4836;BME280;2432;51.226;6.904;2022-07-29T09:45:31;100861.03;;;18.15;100.00
4836;BME280;2432;51.226;6.904;2022-07-29T09:47:58;100857.50;;;18.14;100.00
4836;BME280;2432;51.226;6.904;2022-07-29T09:50:39;100863.47;;;18.19;100.00
4836;BME280;2432;51.226;6.904;2022-07-29T09:53:07;100857.88;;;18.25;100.00
4836;BME280;2432;51.226;6.904;2022-07-29T09:55:46;100863.03;;;18.28;100.00
4836;BME280;2432;51.226;6.904;2022-07-29T09:58:21;100864.13;;;18.24;100.00
4836;BME280;2432;51.226;6.904;2022-07-29T10:00:49;100862.63;;;18.19;100.00
4836;BME280;2432;51.226;6.904;2022-07-29T10:03:16;100859.22;;;18.15;100.00
4836;BME280;2432;51.226;6.904;2022-07-29T10:05:44;100863.56;;;18.18;100.00
4836;BME280;2432;51.226;6.904;2022-07-29T10:08:11;100859.09;;;18.18;100.00
4836;BME280;2432;51.226;6.904;2022-07-29T10:10:42;100866.03;;;18.21;100.00
4836;BME280;2432;51.226;6.904;2022-07-29T10:13:11;100864.25;;;18.21;100.00
4836;BME280;2432;51.226;6.904;2022-07-29T10:15:43;100860.66;;;18.22;100.00
4836;BME280;2432;51.226;6.904;2022-07-29T10:18:13;100875.50;;;18.26;100.00
4836;BME280;2432;51.226;6.904;2022-07-29T10:20:40;100875.34;;;18.29;100.00
4836;BME280;2432;51.226;6.904;2022-07-29T10:23:09;100865.69;;;18.28;100.00
4836;BME280;2432;51.226;6.904;2022-07-29T10:25:35;100867.63;;;18.25;100.00
4836;BME280;2432;51.226;6.904;2022-07-29T10:28:02;100865.97;;;18.22;100.00
4836;BME280;2432;51.226;6.904;2022-07-29T10:30:29;100867.84;;;18.20;100.00
4836;BME280;2432;51.226;6.904;2022-07-29T10:33:04;100867.75;;;18.22;100.00
4836;BME280;2432;51.226;6.904;2022-07-29T10:41:47;100888.16;;;18.39;100.00
4836;BME280;2432;51.226;6.904;2022-07-29T10:44:21;100879.34;;;18.38;100.00
4836;BME280;2432;51.226;6.904;2022-07-29T10:46:50;100882.69;;;18.42;100.00
4836;BME280;2432;51.226;6.904;2022-07-29T10:49:21;100878.97;;;18.46;100.00
4836;BME280;2432;51.226;6.904;2022-07-29T11:02:43;100887.31;;;18.74;100.00
4836;BME280;2432;51.226;6.904;2022-07-29T11:05:19;100882.75;;;18.78;100.00
4836;BME280;2432;51.226;6.904;2022-07-29T11:10:53;100884.59;;;18.93;100.00
4836;BME280;2432;51.226;6.904;2022-07-29T11:13:45;100883.28;;;19.02;100.00
4836;BME280;2432;51.226;6.904;2022-07-29T11:16:14;100886.38;;;19.10;100.00
4836;BME280;2432;51.226;6.904;2022-07-29T11:21:55;100889.38;;;19.21;96.42
4836;BME280;2432;51.226;6.904;2022-07-29T11:24:28;100891.28;;;19.35;97.06
4836;BME280;2432;51.226;6.904;2022-07-29T11:27:23;100891.53;;;19.47;96.26
4836;BME280;2432;51.226;6.904;2022-07-29T11:29:58;100890.28;;;19.55;93.38
4836;BME280;2432;51.226;6.904;2022-07-29T11:32:37;100882.16;;;19.58;91.47
4836;BME280;2432;51.226;6.904;2022-07-29T11:37:45;100875.25;;;19.87;93.63
4836;BME280;2432;51.226;6.904;2022-07-29T11:40:32;100874.94;;;19.93;89.09
4836;BME280;2432;51.226;6.904;2022-07-29T11:42:59;100882.06;;;20.08;89.93
4836;BME280;2432;51.226;6.904;2022-07-29T11:45:27;100868.78;;;20.08;86.96
4836;BME280;2432;51.226;6.904;2022-07-29T11:48:18;100876.72;;;20.24;88.99
4836;BME280;2432;51.226;6.904;2022-07-29T11:50:57;100877.34;;;20.29;86.08
4836;BME280;2432;51.226;6.904;2022-07-29T11:53:24;100886.34;;;20.26;82.81
4836;BME280;2432;51.226;6.904;2022-07-29T11:55:55;100884.03;;;20.20;81.35
4836;BME280;2432;51.226;6.904;2022-07-29T11:58:24;100878.38;;;20.26;83.36
4836;BME280;2432;51.226;6.904;2022-07-29T12:00:52;100876.22;;;20.33;84.10
4836;BME280;2432;51.226;6.904;2022-07-29T12:03:28;100880.59;;;20.34;82.54
4836;BME280;2432;51.226;6.904;2022-07-29T12:06:10;100881.38;;;20.36;82.43
4836;BME280;2432;51.226;6.904;2022-07-29T12:08:42;100873.91;;;20.43;82.83
4836;BME280;2432;51.226;6.904;2022-07-29T12:11:19;100883.00;;;20.54;79.16
4836;BME280;2432;51.226;6.904;2022-07-29T12:13:52;100881.00;;;20.74;80.42
4836;BME280;2432;51.226;6.904;2022-07-29T12:16:20;100879.19;;;21.04;76.14
4836;BME280;2432;51.226;6.904;2022-07-29T12:18:59;100880.72;;;21.38;73.97
4836;BME280;2432;51.226;6.904;2022-07-29T12:21:28;100881.31;;;21.72;77.52
4836;BME280;2432;51.226;6.904;2022-07-29T12:23:56;100875.38;;;22.10;71.47
4836;BME280;2432;51.226;6.904;2022-07-29T12:26:32;100872.94;;;22.34;69.28
4836;BME280;2432;51.226;6.904;2022-07-29T12:29:00;100870.78;;;22.53;71.47
4836;BME280;2432;51.226;6.904;2022-07-29T12:31:28;100877.13;;;22.23;69.89
4836;BME280;2432;51.226;6.904;2022-07-29T12:34:11;100882.41;;;21.96;70.39
4836;BME280;2432;51.226;6.904;2022-07-29T12:36:38;100884.69;;;22.02;68.37
4836;BME280;2432;51.226;6.904;2022-07-29T12:39:04;100873.38;;;21.99;71.63
4836;BME280;2432;51.226;6.904;2022-07-29T12:41:31;100874.72;;;21.92;68.11
4836;BME280;2432;51.226;6.904;2022-07-29T12:43:58;100868.63;;;21.90;65.40
4836;BME280;2432;51.226;6.904;2022-07-29T12:46:25;100869.75;;;22.41;63.79
4836;BME280;2432;51.226;6.904;2022-07-29T12:48:53;100872.81;;;22.62;63.09
4836;BME280;2432;51.226;6.904;2022-07-29T12:51:32;100868.56;;;22.99;65.70
4836;BME280;2432;51.226;6.904;2022-07-29T12:54:08;100864.81;;;23.02;60.83
4836;BME280;2432;51.226;6.904;2022-07-29T12:56:37;100867.19;;;22.94;61.05
4836;BME280;2432;51.226;6.904;2022-07-29T12:59:19;100876.47;;;23.01;61.57
4836;BME280;2432;51.226;6.904;2022-07-29T13:01:50;100868.69;;;23.10;58.75
4836;BME280;2432;51.226;6.904;2022-07-29T13:04:26;100861.66;;;23.35;62.90
4836;BME280;2432;51.226;6.904;2022-07-29T13:07:00;100864.31;;;23.48;59.47
4836;BME280;2432;51.226;6.904;2022-07-29T13:09:43;100854.38;;;23.50;59.73
4836;BME280;2432;51.226;6.904;2022-07-29T13:12:14;100854.69;;;23.58;61.56
4836;BME280;2432;51.226;6.904;2022-07-29T13:14:45;100866.25;;;23.46;58.45
4836;BME280;2432;51.226;6.904;2022-07-29T13:17:14;100855.34;;;23.61;59.68
4836;BME280;2432;51.226;6.904;2022-07-29T13:22:20;100872.00;;;23.27;57.65
4836;BME280;2432;51.226;6.904;2022-07-29T13:27:21;100870.22;;;23.40;57.76
4836;BME280;2432;51.226;6.904;2022-07-29T13:29:48;100869.88;;;23.45;57.06
4836;BME280;2432;51.226;6.904;2022-07-29T13:32:20;100868.06;;;23.58;57.39
4836;BME280;2432;51.226;6.904;2022-07-29T13:34:59;100861.66;;;23.60;55.51
4836;BME280;2432;51.226;6.904;2022-07-29T13:37:31;100859.00;;;23.73;56.91
4836;BME280;2432;51.226;6.904;2022-07-29T13:40:01;100858.44;;;23.81;57.07
4836;BME280;2432;51.226;6.904;2022-07-29T13:42:29;100858.94;;;23.86;54.87
4836;BME280;2432;51.226;6.904;2022-07-29T13:44:56;100851.03;;;23.84;55.54
4836;BME280;2432;51.226;6.904;2022-07-29T13:47:22;100850.97;;;23.73;55.64
4836;BME280;2432;51.226;6.904;2022-07-29T13:49:59;100857.97;;;24.00;56.93
4836;BME280;2432;51.226;6.904;2022-07-29T13:52:26;100849.94;;;24.23;56.98
4836;BME280;2432;51.226;6.904;2022-07-29T13:54:52;100852.28;;;24.28;57.33
4836;BME280;2432;51.226;6.904;2022-07-29T13:57:19;100847.44;;;24.09;57.33
4836;BME280;2432;51.226;6.904;2022-07-29T13:59:45;100861.41;;;24.25;57.91
4836;BME280;2432;51.226;6.904;2022-07-29T14:02:19;100850.31;;;24.06;57.34